Time;durP1;ratioP1;P1;durP2;ratioP2;P2;SDS_P1;SDS_P2;PMS_P1;PMS_P2;Temp;Humidity;BMP_temperature;BMP_pressure;BME280_temperature;BME280_humidity;BME280_pressure;Samples;Min_cycle;Max_cycle;Signal;HPM_P1;HPM_P2
2022/07/20 00:01:35;;;;;;;4.60;4.20;;;32.60;28.90;;;;;;5066664;28;46599;-77
2022/07/20 00:04:02;;;;;;;5.00;4.28;;;32.60;28.90;;;;;;5066933;28;45188;-77
2022/07/20 00:06:28;;;;;;;4.75;4.18;;;32.60;29.50;;;;;;5066950;28;45188;-77
2022/07/20 00:11:39;;;;;;;5.53;3.97;;;32.50;29.00;;;;;;5064089;28;45427;-77
2022/07/20 00:14:06;;;;;;;5.65;4.70;;;32.50;29.10;;;;;;5066554;28;45318;-77
2022/07/20 00:16:35;;;;;;;4.80;4.22;;;32.40;29.00;;;;;;5066802;28;45299;-77
2022/07/20 00:19:02;;;;;;;5.45;4.60;;;32.40;29.00;;;;;;5066872;28;45448;-77
2022/07/20 00:21:29;;;;;;;5.97;4.15;;;32.40;29.00;;;;;;5063971;28;46643;-77
2022/07/20 00:23:56;;;;;;;4.68;4.28;;;32.40;29.10;;;;;;5063856;28;45322;-77
2022/07/20 00:26:22;;;;;;;5.25;4.75;;;32.40;29.10;;;;;;5066613;28;45259;-76
2022/07/20 00:28:50;;;;;;;5.80;4.72;;;32.40;29.10;;;;;;5068862;28;45293;-77
2022/07/20 00:31:17;;;;;;;4.88;4.22;;;32.30;29.00;;;;;;5069987;28;45255;-77
2022/07/20 00:33:46;;;;;;;5.20;4.03;;;32.30;29.10;;;;;;5069957;28;45199;-77
2022/07/20 00:36:13;;;;;;;4.60;4.20;;;32.30;29.10;;;;;;5070195;28;45267;-76
2022/07/20 00:38:40;;;;;;;5.00;4.60;;;32.20;29.10;;;;;;5069404;28;45287;-77
2022/07/20 00:41:07;;;;;;;5.13;4.50;;;32.20;29.00;;;;;;5069801;28;45455;-77
2022/07/20 00:43:58;;;;;;;5.63;4.70;;;32.20;29.10;;;;;;5069835;28;45240;-77
2022/07/20 00:46:25;;;;;;;6.03;5.43;;;32.20;29.00;;;;;;5069250;28;45130;-77
2022/07/20 00:48:53;;;;;;;5.78;5.22;;;32.10;29.10;;;;;;5070082;28;45153;-77
2022/07/20 00:51:20;;;;;;;7.28;4.68;;;32.10;29.10;;;;;;5069806;28;45302;-77
2022/07/20 00:53:47;;;;;;;6.28;5.18;;;32.10;29.10;;;;;;5069740;28;45286;-77
2022/07/20 00:56:14;;;;;;;6.13;5.53;;;32.10;29.20;;;;;;5070026;28;45297;-77
2022/07/20 00:58:41;;;;;;;6.38;5.30;;;32.10;29.20;;;;;;5069983;28;45369;-77
2022/07/20 01:01:08;;;;;;;6.40;5.80;;;32.00;29.20;;;;;;5069465;28;45267;-77
2022/07/20 01:03:35;;;;;;;5.78;5.28;;;32.00;29.20;;;;;;5069611;28;45133;-77
2022/07/20 01:06:03;;;;;;;6.53;5.68;;;32.00;29.20;;;;;;5069743;28;45291;-77
2022/07/20 01:08:30;;;;;;;6.60;5.68;;;31.90;29.20;;;;;;5069589;28;45275;-77
2022/07/20 01:10:57;;;;;;;6.50;5.47;;;31.90;29.20;;;;;;5069387;28;45126;-77
2022/07/20 01:13:24;;;;;;;6.18;5.53;;;31.90;29.20;;;;;;5069383;28;45130;-77
2022/07/20 01:15:51;;;;;;;8.07;5.57;;;31.90;29.30;;;;;;5069501;28;45264;-77
2022/07/20 01:18:18;;;;;;;5.63;5.05;;;31.90;29.30;;;;;;5069564;28;45324;-77
2022/07/20 01:20:45;;;;;;;5.43;4.93;;;31.90;29.30;;;;;;5069212;28;45456;-77
2022/07/20 01:23:14;;;;;;;5.63;5.13;;;31.80;29.30;;;;;;5069275;28;45301;-77
2022/07/20 01:25:40;;;;;;;5.93;5.10;;;31.80;29.30;;;;;;5069245;28;45248;-77
2022/07/20 01:28:07;;;;;;;6.65;6.05;;;31.80;29.40;;;;;;5069395;28;45399;-76
2022/07/20 01:30:34;;;;;;;5.80;5.30;;;31.80;29.40;;;;;;5068968;28;45374;-76
2022/07/20 01:33:01;;;;;;;5.70;5.10;;;31.70;29.40;;;;;;5068273;28;45197;-77
2022/07/20 01:35:28;;;;;;;6.00;5.40;;;31.70;29.40;;;;;;5068909;28;45205;-77
2022/07/20 01:37:55;;;;;;;5.57;5.07;;;31.70;29.50;;;;;;5069355;28;45165;-77
2022/07/20 01:40:23;;;;;;;6.03;5.38;;;31.70;29.50;;;;;;5068836;28;46691;-77
2022/07/20 01:42:50;;;;;;;5.75;5.20;;;31.60;29.50;;;;;;5069096;28;45257;-77
2022/07/20 01:45:18;;;;;;;5.47;4.97;;;31.60;29.40;;;;;;5069007;28;45191;-77
2022/07/20 01:47:45;;;;;;;5.25;4.75;;;31.60;29.50;;;;;;5069194;28;45262;-77
2022/07/20 01:50:11;;;;;;;5.80;4.95;;;31.60;29.50;;;;;;5068784;28;45483;-77
2022/07/20 01:52:38;;;;;;;5.50;4.90;;;31.50;29.50;;;;;;5068706;28;45314;-77
2022/07/20 01:55:06;;;;;;;5.70;5.10;;;31.50;29.50;;;;;;5068895;28;45438;-77
2022/07/20 01:57:34;;;;;;;5.47;4.97;;;31.50;29.60;;;;;;5068975;28;45178;-78
2022/07/20 02:00:01;;;;;;;6.10;4.97;;;31.50;30.00;;;;;;5068567;28;46651;-77
2022/07/20 02:02:27;;;;;;;5.47;4.97;;;31.50;29.70;;;;;;5068598;28;45328;-77
2022/07/20 02:04:54;;;;;;;4.82;4.43;;;31.50;29.60;;;;;;5068746;28;45310;-77
2022/07/20 02:07:21;;;;;;;5.72;4.88;;;31.40;29.60;;;;;;5068961;28;45270;-77
2022/07/20 02:09:48;;;;;;;5.00;4.55;;;31.40;29.60;;;;;;5068443;28;46696;-77
2022/07/20 02:12:15;;;;;;;5.50;4.90;;;31.40;29.50;;;;;;5065952;28;45213;-77
2022/07/20 02:14:43;;;;;;;5.72;5.07;;;31.40;29.60;;;;;;5066157;28;45359;-78
2022/07/20 02:17:10;;;;;;;6.45;5.13;;;31.40;29.70;;;;;;5068761;28;45331;-77
2022/07/20 02:19:36;;;;;;;5.70;5.03;;;31.30;29.60;;;;;;5067283;28;45208;-77
2022/07/20 02:22:03;;;;;;;5.22;4.72;;;31.30;29.60;;;;;;5068305;28;45205;-77
2022/07/20 02:24:30;;;;;;;5.10;4.60;;;31.30;29.60;;;;;;5068525;28;45424;-77
2022/07/20 02:26:57;;;;;;;5.20;4.68;;;31.20;29.60;;;;;;5068485;28;45396;-77
2022/07/20 02:29:24;;;;;;;5.20;4.70;;;31.20;29.60;;;;;;5068011;28;46392;-77
2022/07/20 02:31:52;;;;;;;5.43;4.93;;;31.20;29.70;;;;;;5068440;28;45393;-77
2022/07/20 02:34:19;;;;;;;5.15;4.65;;;31.20;29.70;;;;;;5067868;28;45178;-76
2022/07/20 02:36:46;;;;;;;5.32;4.80;;;31.20;29.70;;;;;;5068587;28;45176;-77
2022/07/20 02:39:12;;;;;;;5.38;4.80;;;31.10;29.70;;;;;;5067927;28;46654;-77
2022/07/20 02:41:39;;;;;;;6.50;4.55;;;31.10;29.70;;;;;;5068294;28;45445;-77
2022/07/20 02:44:06;;;;;;;6.45;4.95;;;31.10;29.60;;;;;;5068128;28;45290;-77
2022/07/20 02:46:33;;;;;;;4.40;4.00;;;31.10;29.70;;;;;;5068197;28;45327;-77
2022/07/20 02:49:01;;;;;;;5.55;5.05;;;31.10;29.70;;;;;;5067663;28;46375;-77
2022/07/20 02:51:28;;;;;;;4.65;4.25;;;31.00;29.70;;;;;;5067234;28;45328;-77
2022/07/20 02:53:54;;;;;;;5.38;4.40;;;31.00;29.70;;;;;;5068194;28;45340;-77
2022/07/20 02:56:21;;;;;;;4.65;4.25;;;31.00;29.70;;;;;;5068200;28;45356;-76
2022/07/20 02:58:48;;;;;;;4.40;4.00;;;31.00;29.70;;;;;;5067626;28;46642;-77
2022/07/20 03:01:15;;;;;;;5.13;4.57;;;31.00;29.70;;;;;;5067734;28;45155;-77
2022/07/20 03:03:42;;;;;;;4.30;3.90;;;31.00;29.70;;;;;;5067439;28;45450;-76
2022/07/20 03:06:10;;;;;;;4.85;4.32;;;30.90;29.70;;;;;;5067167;28;45252;-77
2022/07/20 03:08:37;;;;;;;4.75;4.35;;;30.90;29.80;;;;;;5067656;28;45220;-77
2022/07/20 03:11:04;;;;;;;4.85;4.38;;;30.90;29.80;;;;;;5067582;28;45241;-77
2022/07/20 03:13:31;;;;;;;4.72;4.18;;;30.90;29.80;;;;;;5067579;28;45192;-77
2022/07/20 03:15:58;;;;;;;4.30;3.90;;;30.90;29.90;;;;;;5067827;28;45306;-77
2022/07/20 03:18:25;;;;;;;5.57;4.35;;;30.90;29.80;;;;;;5067528;28;47932;-76
2022/07/20 03:20:52;;;;;;;5.45;4.32;;;30.90;29.80;;;;;;5067475;28;45164;-76
2022/07/20 03:23:20;;;;;;;5.57;4.38;;;30.80;29.80;;;;;;5067494;28;45237;-76
2022/07/20 03:25:47;;;;;;;4.10;3.70;;;30.80;29.80;;;;;;5067570;28;45379;-77
2022/07/20 03:28:13;;;;;;;4.13;3.80;;;30.80;29.80;;;;;;5067077;28;46703;-77
2022/07/20 03:30:40;;;;;;;4.68;3.75;;;30.80;29.90;;;;;;5067234;28;45275;-77
2022/07/20 03:33:07;;;;;;;4.72;3.90;;;30.70;30.30;;;;;;5067322;28;45144;-77
2022/07/20 03:35:34;;;;;;;4.00;3.60;;;30.70;29.80;;;;;;5067184;28;45323;-76
2022/07/20 03:38:01;;;;;;;4.32;3.92;;;30.70;29.90;;;;;;5067244;28;45526;-76
2022/07/20 03:40:29;;;;;;;4.13;3.50;;;30.70;30.00;;;;;;5067593;28;45337;-76
2022/07/20 03:42:56;;;;;;;4.32;3.92;;;30.70;29.90;;;;;;5067314;28;45248;-77
2022/07/20 03:45:23;;;;;;;4.53;4.07;;;30.60;29.90;;;;;;5067427;28;45271;-76
2022/07/20 03:47:49;;;;;;;3.95;3.60;;;30.60;29.90;;;;;;5066808;28;46377;-77
2022/07/20 03:50:16;;;;;;;4.93;3.92;;;30.60;29.90;;;;;;5066459;28;45181;-75
2022/07/20 03:52:43;;;;;;;3.97;3.67;;;30.60;30.00;;;;;;5066906;28;45343;-77
2022/07/20 03:55:10;;;;;;;3.92;3.53;;;30.50;29.90;;;;;;5067183;28;45244;-77
2022/07/20 03:57:38;;;;;;;5.00;3.88;;;30.50;29.90;;;;;;5066954;28;46651;-77
2022/07/20 04:00:06;;;;;;;4.20;3.80;;;30.50;29.90;;;;;;5067627;28;45192;-77
2022/07/20 04:02:33;;;;;;;3.85;3.55;;;30.50;30.00;;;;;;5067239;28;45325;-77
2022/07/20 04:05:00;;;;;;;4.28;3.88;;;30.50;30.00;;;;;;5067593;28;45320;-76
2022/07/20 04:07:27;;;;;;;3.80;3.50;;;30.50;30.00;;;;;;5066839;28;45214;-77
2022/07/20 04:09:54;;;;;;;5.95;3.90;;;30.50;30.00;;;;;;5066634;28;45228;-77
2022/07/20 04:12:21;;;;;;;4.28;3.70;;;30.50;30.00;;;;;;5066887;28;45176;-77
2022/07/20 04:14:50;;;;;;;4.25;3.83;;;30.40;30.00;;;;;;5066980;28;45465;-76
2022/07/20 04:17:17;;;;;;;3.85;3.55;;;30.40;30.00;;;;;;5066511;28;45735;-77
2022/07/20 04:19:44;;;;;;;4.10;3.70;;;30.40;30.00;;;;;;5066664;28;45177;-77
2022/07/20 04:22:11;;;;;;;3.80;3.50;;;30.40;30.10;;;;;;5066966;28;45184;-78
2022/07/20 04:24:38;;;;;;;3.75;3.42;;;30.40;30.10;;;;;;5066807;28;45364;-77
2022/07/20 04:27:05;;;;;;;4.28;3.97;;;30.40;30.10;;;;;;5066232;28;46416;-77
2022/07/20 04:29:32;;;;;;;4.07;3.40;;;30.40;30.10;;;;;;5066310;28;45173;-77
2022/07/20 04:32:00;;;;;;;3.80;3.50;;;30.40;30.20;;;;;;5066507;28;45198;-77
2022/07/20 04:34:27;;;;;;;4.07;3.67;;;30.40;30.20;;;;;;5066449;28;45407;-77
2022/07/20 04:36:54;;;;;;;3.92;3.63;;;30.40;30.20;;;;;;5065943;28;46397;-77
2022/07/20 04:39:21;;;;;;;4.85;3.28;;;30.40;30.20;;;;;;5065600;28;45292;-77
2022/07/20 04:41:47;;;;;;;3.60;3.30;;;30.40;30.20;;;;;;5066557;28;45202;-77
2022/07/20 04:44:14;;;;;;;4.35;3.40;;;30.40;30.20;;;;;;5066599;28;45169;-77
2022/07/20 04:46:41;;;;;;;3.92;3.60;;;30.40;30.20;;;;;;5066240;28;47634;-77
2022/07/20 04:49:09;;;;;;;4.32;3.33;;;30.40;30.30;;;;;;5066216;28;45393;-77
2022/07/20 04:51:36;;;;;;;4.15;3.45;;;30.40;30.30;;;;;;5066536;28;45287;-77
2022/07/20 04:54:03;;;;;;;3.58;3.28;;;30.40;30.30;;;;;;5066565;28;45126;-77
2022/07/20 04:56:30;;;;;;;3.50;3.20;;;30.40;30.30;;;;;;5066083;28;45191;-77
2022/07/20 04:58:57;;;;;;;3.55;3.25;;;30.40;30.30;;;;;;5066293;28;45528;-77
2022/07/20 05:01:23;;;;;;;3.95;3.60;;;30.40;30.30;;;;;;5066123;28;45363;-77
2022/07/20 05:03:50;;;;;;;3.50;3.20;;;30.30;30.20;;;;;;5066454;28;45321;-77
2022/07/20 05:06:18;;;;;;;3.53;3.22;;;30.40;30.30;;;;;;5065991;28;46645;-77
2022/07/20 05:08:45;;;;;;;3.60;3.30;;;30.30;30.30;;;;;;5066396;28;45185;-77
2022/07/20 05:11:12;;;;;;;3.65;3.28;;;30.30;30.30;;;;;;5066172;28;45288;-77
2022/07/20 05:13:39;;;;;;;3.72;3.35;;;30.40;30.40;;;;;;5066751;28;45321;-77
2022/07/20 05:16:06;;;;;;;3.25;2.95;;;30.40;30.40;;;;;;5069459;28;45437;-78
2022/07/20 05:18:33;;;;;;;3.47;3.17;;;30.40;30.40;;;;;;5069321;28;45206;-77
2022/07/20 05:21:00;;;;;;;3.60;3.30;;;30.40;30.40;;;;;;5069409;28;45208;-77
2022/07/20 05:23:28;;;;;;;4.00;3.67;;;30.40;30.50;;;;;;5068916;28;45375;-77
2022/07/20 05:25:55;;;;;;;3.78;3.47;;;30.40;30.40;;;;;;5068763;28;46448;-77
2022/07/20 05:28:22;;;;;;;3.65;3.35;;;30.40;30.50;;;;;;5069460;28;45211;-77
2022/07/20 05:30:49;;;;;;;3.63;3.10;;;30.40;30.50;;;;;;5069250;28;45271;-77
2022/07/20 05:33:16;;;;;;;3.38;3.08;;;30.40;30.60;;;;;;5069427;28;45330;-77
2022/07/20 05:35:43;;;;;;;3.60;3.30;;;30.40;30.50;;;;;;5068675;28;45349;-77
2022/07/20 05:38:10;;;;;;;3.72;3.38;;;30.40;30.50;;;;;;5069020;28;45386;-77
2022/07/20 05:40:38;;;;;;;3.50;3.05;;;30.40;30.60;;;;;;5069155;28;45311;-77
2022/07/20 05:43:05;;;;;;;4.13;3.30;;;30.40;30.60;;;;;;5069330;28;45308;-77
2022/07/20 05:45:32;;;;;;;3.78;3.35;;;30.40;30.60;;;;;;5068817;28;45413;-77
2022/07/20 05:47:59;;;;;;;3.60;3.38;;;30.40;30.60;;;;;;5069415;28;45366;-77
2022/07/20 05:50:26;;;;;;;3.50;3.20;;;30.40;30.60;;;;;;5068848;28;45375;-77
2022/07/20 05:52:53;;;;;;;3.60;3.30;;;30.40;30.60;;;;;;5069257;28;45138;-77
2022/07/20 05:55:20;;;;;;;3.42;3.13;;;30.40;30.60;;;;;;5068699;28;46639;-77
2022/07/20 05:57:48;;;;;;;3.55;3.25;;;30.40;31.20;;;;;;5066032;28;45208;-77
2022/07/20 06:00:15;;;;;;;3.53;3.22;;;30.50;30.70;;;;;;5068898;28;45350;-77
2022/07/20 06:02:42;;;;;;;4.25;3.47;;;30.50;30.70;;;;;;5069187;28;45307;-77
2022/07/20 06:05:09;;;;;;;3.50;3.00;;;30.50;30.70;;;;;;5068608;28;45509;-78
2022/07/20 06:07:36;;;;;;;4.57;3.50;;;30.50;30.70;;;;;;5068493;28;45208;-78
2022/07/20 06:10:04;;;;;;;3.13;2.92;;;30.50;30.70;;;;;;5067865;28;45407;-78
2022/07/20 06:12:31;;;;;;;3.42;3.13;;;30.50;30.70;;;;;;5068394;28;45295;-77
2022/07/20 06:14:59;;;;;;;3.63;3.28;;;30.50;30.70;;;;;;5068602;28;45237;-77
2022/07/20 06:17:33;;;;;;;3.50;3.20;;;30.50;30.80;;;;;;5068344;28;45200;-77
2022/07/20 06:20:04;;;;;;;4.10;3.47;;;30.50;30.80;;;;;;5068481;28;45208;-77
2022/07/20 06:22:31;;;;;;;3.13;2.92;;;30.50;31.40;;;;;;5068754;28;45263;-77
2022/07/20 06:24:58;;;;;;;3.40;3.08;;;30.50;30.80;;;;;;5067904;28;45573;-77
2022/07/20 06:27:24;;;;;;;3.83;3.42;;;30.60;30.80;;;;;;5067777;28;45221;-77
2022/07/20 06:29:51;;;;;;;3.30;3.10;;;30.60;31.50;;;;;;5065699;28;45187;-77
2022/07/20 06:32:19;;;;;;;4.35;3.10;;;30.60;30.90;;;;;;5068482;28;45384;-78
2022/07/20 06:34:46;;;;;;;3.75;3.40;;;30.60;31.00;;;;;;5067988;27;45558;-77
2022/07/20 06:37:13;;;;;;;3.60;3.30;;;30.60;30.90;;;;;;5068065;28;45413;-78
2022/07/20 06:39:40;;;;;;;4.70;3.20;;;30.60;31.00;;;;;;5068248;28;45272;-78
2022/07/20 06:42:07;;;;;;;3.75;3.30;;;30.70;31.00;;;;;;5068589;28;45181;-77
2022/07/20 06:44:34;;;;;;;4.45;3.67;;;30.70;31.00;;;;;;5067857;28;45451;-77
2022/07/20 06:47:01;;;;;;;3.28;2.97;;;30.70;31.00;;;;;;5068006;28;45325;-78
2022/07/20 06:49:29;;;;;;;3.63;3.35;;;30.70;31.00;;;;;;5065367;28;45291;-77
2022/07/20 06:51:56;;;;;;;3.35;3.10;;;30.70;31.00;;;;;;5068439;28;45410;-77
2022/07/20 06:54:23;;;;;;;2.85;2.65;;;30.70;30.90;;;;;;5067724;28;45290;-78
2022/07/20 06:56:50;;;;;;;4.00;3.40;;;30.70;30.90;;;;;;5067902;28;45318;-77
2022/07/20 06:59:17;;;;;;;3.38;3.17;;;30.70;30.90;;;;;;5067701;28;45307;-76
2022/07/20 07:01:44;;;;;;;3.67;3.38;;;30.80;31.00;;;;;;5067685;27;45197;-78
2022/07/20 07:04:10;;;;;;;3.53;3.22;;;30.80;31.00;;;;;;5067650;28;46249;-77
2022/07/20 07:06:39;;;;;;;3.28;2.97;;;30.80;31.60;;;;;;5067693;28;45195;-77
2022/07/20 07:09:05;;;;;;;3.83;3.50;;;30.80;31.90;;;;;;5067647;28;45326;-77
2022/07/20 07:11:32;;;;;;;4.60;3.38;;;30.80;31.20;;;;;;5067877;28;45447;-77
2022/07/20 07:13:59;;;;;;;3.20;2.90;;;30.80;31.00;;;;;;5067624;28;45710;-77
2022/07/20 07:16:26;;;;;;;3.25;3.05;;;30.90;31.10;;;;;;5067504;28;45183;-78
2022/07/20 07:18:53;;;;;;;3.65;3.35;;;30.90;31.00;;;;;;5067738;28;45187;-78
2022/07/20 07:21:20;;;;;;;3.70;3.40;;;30.90;31.10;;;;;;5067543;28;45454;-77
2022/07/20 07:23:49;;;;;;;3.22;3.03;;;30.90;31.10;;;;;;5067310;28;46573;-78
2022/07/20 07:26:16;;;;;;;3.55;3.25;;;30.90;31.10;;;;;;5067514;28;45245;-77
2022/07/20 07:28:43;;;;;;;4.40;3.70;;;30.90;31.00;;;;;;5067455;28;45183;-78
2022/07/20 07:31:10;;;;;;;3.35;3.05;;;30.90;31.10;;;;;;5067488;28;45470;-77
2022/07/20 07:33:37;;;;;;;3.10;2.90;;;30.90;31.00;;;;;;5067286;28;45723;-78
2022/07/20 07:36:04;;;;;;;3.10;2.90;;;31.00;31.20;;;;;;5066811;28;45212;-77
2022/07/20 07:38:31;;;;;;;3.42;3.13;;;31.00;31.10;;;;;;5067323;28;45268;-77
2022/07/20 07:40:59;;;;;;;3.63;3.33;;;31.00;31.00;;;;;;5067621;28;45450;-77
2022/07/20 07:43:26;;;;;;;3.50;3.05;;;31.00;31.10;;;;;;5066873;27;45560;-77
2022/07/20 07:45:53;;;;;;;3.35;3.15;;;31.10;31.10;;;;;;5066949;28;45335;-75
2022/07/20 07:48:20;;;;;;;3.17;2.97;;;31.10;31.10;;;;;;5066524;28;45232;-76
2022/07/20 07:50:47;;;;;;;3.47;3.22;;;31.10;31.10;;;;;;5067267;28;45229;-76
2022/07/20 07:53:14;;;;;;;3.70;3.40;;;31.20;31.00;;;;;;5065313;28;46377;-77
2022/07/20 07:55:41;;;;;;;4.90;4.50;;;31.20;31.90;;;;;;5066766;28;45371;-77
2022/07/20 07:58:09;;;;;;;5.28;4.82;;;31.30;32.80;;;;;;5067134;28;45260;-77
2022/07/20 08:00:36;;;;;;;7.90;4.95;;;31.30;33.50;;;;;;5066605;28;45509;-76
2022/07/20 08:03:03;;;;;;;7.63;6.25;;;31.30;33.80;;;;;;5066494;28;45539;-77
2022/07/20 08:05:30;;;;;;;6.88;6.20;;;31.30;35.40;;;;;;5066326;28;45260;-76
2022/07/20 08:07:57;;;;;;;7.15;6.45;;;31.40;35.00;;;;;;5066713;28;45232;-77
2022/07/20 08:10:24;;;;;;;7.97;7.05;;;31.50;36.00;;;;;;5066808;28;45391;-74
2022/07/20 08:12:50;;;;;;;8.43;7.53;;;31.50;36.10;;;;;;5066241;28;46427;-74
2022/07/20 08:15:19;;;;;;;8.73;7.78;;;31.60;36.40;;;;;;5066254;28;45231;-73
2022/07/20 08:17:46;;;;;;;8.20;7.40;;;31.60;36.70;;;;;;5066879;28;45376;-76
2022/07/20 08:20:13;;;;;;;12.20;8.48;;;31.70;36.50;;;;;;5066706;28;45454;-76
2022/07/20 08:22:40;;;;;;;12.43;8.73;;;31.70;36.80;;;;;;5066284;28;45474;-75
2022/07/20 08:25:07;;;;;;;10.27;8.88;;;31.70;37.30;;;;;;5066303;28;45237;-74
2022/07/20 08:27:34;;;;;;;10.27;8.80;;;31.80;37.40;;;;;;5066548;28;45292;-76
2022/07/20 08:30:01;;;;;;;10.18;9.18;;;31.80;37.60;;;;;;5066597;28;45433;-76
2022/07/20 08:32:29;;;;;;;11.35;9.30;;;31.80;37.60;;;;;;5065669;28;45271;-74
2022/07/20 08:34:56;;;;;;;11.10;9.85;;;31.80;37.30;;;;;;5065360;28;45393;-76
2022/07/20 08:37:23;;;;;;;12.63;10.77;;;31.80;38.40;;;;;;5066343;28;45252;-77
2022/07/20 08:39:50;;;;;;;17.85;9.82;;;31.90;38.40;;;;;;5066776;28;45363;-77
2022/07/20 08:42:17;;;;;;;15.02;10.48;;;31.80;38.70;;;;;;5066160;28;46392;-77
2022/07/20 08:44:44;;;;;;;11.00;10.00;;;31.80;39.30;;;;;;5066113;28;45264;-77
2022/07/20 08:47:11;;;;;;;13.82;10.70;;;31.80;39.40;;;;;;5063573;28;45114;-77
2022/07/20 08:49:41;;;;;;;14.23;10.82;;;31.90;39.30;;;;;;5068305;28;45197;-77
2022/07/20 08:52:08;;;;;;;13.48;10.73;;;31.90;39.30;;;;;;5069685;28;47445;-77
2022/07/20 08:54:35;;;;;;;13.95;11.80;;;32.00;39.40;;;;;;5069692;28;45291;-76
2022/07/20 08:57:08;;;;;;;14.43;10.50;;;32.00;39.60;;;;;;5069651;28;45266;-76
2022/07/20 08:59:35;;;;;;;12.57;10.80;;;32.00;39.40;;;;;;5069647;28;45212;-76
2022/07/20 09:02:03;;;;;;;12.43;11.13;;;32.10;39.40;;;;;;5069569;28;45441;-76
2022/07/20 09:04:30;;;;;;;12.10;10.65;;;32.10;39.40;;;;;;5069427;28;45330;-76
2022/07/20 09:06:58;;;;;;;11.55;10.45;;;32.10;39.60;;;;;;5069714;28;45353;-77
2022/07/20 09:09:25;;;;;;;12.95;10.40;;;32.20;39.30;;;;;;5069753;28;45188;-76
2022/07/20 09:11:52;;;;;;;10.75;9.77;;;32.20;39.00;;;;;;5069086;28;46656;-76
2022/07/20 09:14:37;;;;;;;11.95;10.77;;;32.30;38.90;;;;;;5069601;28;45168;-76
2022/07/20 09:17:15;;;;;;;13.38;10.32;;;32.30;38.70;;;;;;5069534;28;45191;-76
2022/07/20 09:19:55;;;;;;;11.65;10.45;;;32.40;39.10;;;;;;5069336;28;45339;-76
2022/07/20 09:22:31;;;;;;;12.88;11.50;;;32.40;39.10;;;;;;5066612;28;45651;-76
2022/07/20 09:25:10;;;;;;;12.65;11.45;;;32.40;39.70;;;;;;5069173;27;45260;-76
2022/07/20 09:27:37;;;;;;;14.95;12.55;;;32.40;39.30;;;;;;5069207;28;45298;-77
2022/07/20 09:30:09;;;;;;;16.73;12.93;;;32.50;39.80;;;;;;5068631;28;45474;-76
2022/07/20 09:32:53;;;;;;;14.57;12.13;;;32.60;39.50;;;;;;5066588;28;46540;-76
2022/07/20 09:35:20;;;;;;;13.80;12.48;;;32.60;39.60;;;;;;5068809;28;45207;-78
2022/07/20 09:37:51;;;;;;;14.20;12.57;;;32.60;39.80;;;;;;5829851;22;46132;-81
2022/07/20 09:40:18;;;;;;;15.38;13.55;;;32.70;39.90;;;;;;5086819;28;45380;-81
2022/07/20 09:42:46;;;;;;;15.43;12.90;;;32.70;40.00;;;;;;5089102;28;45471;-80
2022/07/20 09:45:36;;;;;;;14.90;13.35;;;32.70;39.70;;;;;;5089372;28;45261;-79
2022/07/20 09:48:13;;;;;;;15.35;13.18;;;32.70;39.80;;;;;;5085289;28;45400;-78
2022/07/20 09:50:40;;;;;;;15.55;13.95;;;32.70;40.60;;;;;;5089495;28;45282;-78
2022/07/20 09:53:09;;;;;;;15.57;13.93;;;32.80;40.30;;;;;;5088631;28;45202;-79
2022/07/20 09:55:36;;;;;;;17.70;13.70;;;32.80;40.60;;;;;;5088974;28;45323;-79
2022/07/20 09:58:03;;;;;;;18.15;14.23;;;32.80;40.30;;;;;;5089366;28;45383;-77
2022/07/20 10:00:30;;;;;;;19.25;14.77;;;32.90;40.50;;;;;;5084903;28;45290;-72
2022/07/20 10:02:58;;;;;;;14.63;13.13;;;32.90;40.50;;;;;;5088227;28;45222;-73
2022/07/20 10:05:25;;;;;;;16.05;14.25;;;32.90;40.60;;;;;;5088816;28;45479;-74
2022/07/20 10:07:52;;;;;;;16.33;13.35;;;32.90;40.50;;;;;;5088859;28;45299;-73
2022/07/20 10:10:20;;;;;;;17.45;13.38;;;33.00;40.30;;;;;;5088912;28;45353;-74
2022/07/20 10:12:47;;;;;;;15.15;13.35;;;33.00;40.20;;;;;;5088650;28;46763;-74
2022/07/20 10:15:18;;;;;;;14.82;13.32;;;33.00;40.00;;;;;;5088688;28;45261;-73
2022/07/20 10:17:45;;;;;;;15.25;13.10;;;33.10;39.90;;;;;;5088965;28;45245;-73
2022/07/20 10:20:32;;;;;;;15.13;13.60;;;33.10;40.00;;;;;;5088770;28;45333;-73
2022/07/20 10:23:24;;;;;;;15.38;13.13;;;33.10;39.80;;;;;;5088499;28;45269;-73
2022/07/20 10:25:52;;;;;;;16.75;14.90;;;33.10;39.90;;;;;;5088565;28;45131;-73
2022/07/20 10:28:33;;;;;;;16.17;13.85;;;33.00;39.90;;;;;;5088644;28;45189;-74
2022/07/20 10:31:04;;;;;;;16.33;14.48;;;32.90;40.00;;;;;;5067798;28;45277;-74
2022/07/20 10:33:31;;;;;;;15.82;13.88;;;32.90;40.00;;;;;;5068022;28;46390;-74
2022/07/20 10:38:39;;;;;;;17.90;13.80;;;32.90;40.20;;;;;;5087045;28;44750;-75
2022/07/20 10:44:30;;;;;;;17.63;14.52;;;32.90;41.10;;;;;;5085365;28;45248;-75
2022/07/20 10:47:01;;;;;;;15.80;14.02;;;32.90;43.90;;;;;;5087186;28;45312;-74
2022/07/20 10:49:59;;;;;;;15.82;14.27;;;32.80;43.20;;;;;;5088096;28;45246;-75
2022/07/20 10:52:33;;;;;;;15.23;13.63;;;32.60;43.40;;;;;;5088024;28;45673;-75
2022/07/20 10:55:00;;;;;;;16.10;14.13;;;32.60;43.50;;;;;;5088067;28;47280;-74
2022/07/20 10:57:28;;;;;;;17.63;13.85;;;32.60;43.50;;;;;;5087896;28;45348;-73
2022/07/20 11:00:16;;;;;;;15.32;13.32;;;32.60;43.50;;;;;;5088032;28;45299;-74
2022/07/20 11:02:42;;;;;;;15.70;13.77;;;32.60;43.10;;;;;;5083392;28;45465;-75
2022/07/20 11:05:20;;;;;;;15.55;13.82;;;32.60;43.10;;;;;;5087616;28;45415;-74
2022/07/20 11:07:46;;;;;;;18.55;14.32;;;32.50;43.40;;;;;;5088158;28;45221;-77
2022/07/20 11:10:22;;;;;;;18.45;13.63;;;32.50;44.60;;;;;;5087421;28;45245;-75
2022/07/20 11:13:00;;;;;;;16.73;13.32;;;32.50;45.50;;;;;;5087109;28;45356;-76
2022/07/20 11:15:40;;;;;;;19.30;14.45;;;32.40;46.90;;;;;;5087362;28;46398;-76
2022/07/20 11:18:08;;;;;;;15.57;13.88;;;32.40;47.20;;;;;;5088921;28;44825;-75
2022/07/20 11:20:35;;;;;;;17.95;12.98;;;32.40;47.10;;;;;;5088787;28;45188;-75
2022/07/20 11:23:02;;;;;;;17.15;14.00;;;32.30;47.20;;;;;;5089917;28;45207;-75
2022/07/20 11:25:45;;;;;;;15.80;14.15;;;32.30;48.10;;;;;;5089989;28;45757;-76
2022/07/20 11:28:13;;;;;;;16.95;12.75;;;32.20;47.40;;;;;;5088741;28;45198;-76
2022/07/20 11:30:42;;;;;;;15.98;12.93;;;32.10;46.40;;;;;;5088719;28;45262;-78
2022/07/20 11:33:09;;;;;;;19.88;13.65;;;32.00;47.50;;;;;;5089530;28;45228;-77
2022/07/20 11:35:39;;;;;;;15.50;13.93;;;32.00;48.10;;;;;;5087957;28;45511;-74
2022/07/20 11:38:06;;;;;;;16.10;13.68;;;31.90;48.40;;;;;;5087770;28;45313;-74
2022/07/20 11:40:33;;;;;;;15.13;13.05;;;31.90;48.30;;;;;;5085623;28;45410;-74
2022/07/20 11:43:10;;;;;;;14.73;12.98;;;31.90;46.60;;;;;;5092577;28;45312;-74
2022/07/20 11:45:38;;;;;;;18.25;14.38;;;32.00;46.80;;;;;;5089942;28;45592;-75
2022/07/20 11:48:19;;;;;;;17.95;13.85;;;32.10;49.90;;;;;;5087866;28;45344;-75
2022/07/20 11:50:46;;;;;;;17.48;13.90;;;32.10;50.80;;;;;;5087331;28;45282;-76
2022/07/20 11:53:26;;;;;;;20.55;14.45;;;32.20;50.30;;;;;;5087630;28;45368;-78
2022/07/20 11:55:53;;;;;;;14.23;12.70;;;32.20;50.30;;;;;;5087093;28;46529;-76
2022/07/20 11:58:28;;;;;;;14.77;13.20;;;32.30;49.00;;;;;;5087247;28;45273;-76
2022/07/20 12:00:56;;;;;;;15.15;12.18;;;32.30;48.10;;;;;;5084364;28;45376;-76
2022/07/20 12:03:24;;;;;;;15.68;12.85;;;32.40;47.70;;;;;;5087309;28;45498;-76
2022/07/20 12:05:51;;;;;;;16.40;12.68;;;32.50;47.10;;;;;;5086872;28;45280;-76
2022/07/20 12:08:19;;;;;;;14.80;12.15;;;32.60;46.30;;;;;;5087068;28;45245;-75
2022/07/20 12:10:46;;;;;;;15.20;12.65;;;32.70;45.30;;;;;;5086866;28;45317;-75
2022/07/20 12:13:14;;;;;;;15.57;12.63;;;32.70;44.80;;;;;;5087400;28;45369;-75
2022/07/20 12:15:41;;;;;;;15.98;13.90;;;32.80;44.20;;;;;;5086620;28;46396;-75
2022/07/20 12:18:09;;;;;;;16.77;13.20;;;32.90;43.90;;;;;;5085460;28;45250;-75
2022/07/20 12:20:36;;;;;;;16.15;14.45;;;33.00;43.40;;;;;;5086959;28;45377;-75
2022/07/20 12:23:03;;;;;;;17.52;14.48;;;33.00;42.00;;;;;;5086950;27;45250;-75
2022/07/20 12:25:36;;;;;;;15.50;13.90;;;32.90;41.90;;;;;;5089928;28;45738;-75
2022/07/20 12:28:03;;;;;;;17.33;14.05;;;32.90;42.00;;;;;;5090499;28;45189;-75
2022/07/20 12:30:31;;;;;;;15.63;14.00;;;33.00;42.00;;;;;;5089784;28;45169;-74
2022/07/20 12:33:10;;;;;;;16.08;14.05;;;33.10;41.70;;;;;;5090413;28;45293;-75
2022/07/20 12:35:37;;;;;;;15.90;14.20;;;33.20;41.70;;;;;;5090380;28;45389;-75
2022/07/20 12:38:04;;;;;;;17.25;14.15;;;33.10;41.20;;;;;;5089711;28;45205;-75
2022/07/20 12:40:39;;;;;;;19.38;15.13;;;33.10;41.50;;;;;;5090447;28;45550;-75
2022/07/20 12:43:07;;;;;;;18.50;15.07;;;33.10;41.50;;;;;;5090522;28;45289;-75
2022/07/20 12:45:33;;;;;;;16.38;14.60;;;33.10;41.60;;;;;;5090087;28;45871;-75
2022/07/20 12:48:00;;;;;;;17.27;14.88;;;33.10;41.60;;;;;;5090244;28;45292;-74
2022/07/20 12:50:28;;;;;;;19.13;15.43;;;33.20;42.20;;;;;;5090247;28;45346;-75
2022/07/20 12:52:55;;;;;;;17.30;14.90;;;33.20;41.40;;;;;;5089804;28;45264;-75
2022/07/20 12:55:22;;;;;;;18.15;14.38;;;33.20;41.30;;;;;;5089900;28;45459;-76